Time;durP1;ratioP1;P1;durP2;ratioP2;P2;SDS_P1;SDS_P2;PMS_P1;PMS_P2;Temp;Humidity;BMP_temperature;BMP_pressure;BME280_temperature;BME280_humidity;BME280_pressure;Samples;Min_cycle;Max_cycle;Signal;HPM_P1;HPM_P2
2022/07/04 00:00:53;;;;;;;1.70;0.05;;;13.20;99.90;;;;;;5075087;28;20032;-74
2022/07/04 00:03:19;;;;;;;0.65;0.00;;;13.20;99.90;;;;;;5075698;28;20036;-74
2022/07/04 00:05:44;;;;;;;1.60;0.15;;;13.20;99.90;;;;;;5075042;28;20456;-75
2022/07/04 00:08:10;;;;;;;1.73;0.13;;;13.20;99.90;;;;;;5057162;28;20029;-74
2022/07/04 00:10:35;;;;;;;1.38;0.00;;;13.20;99.90;;;;;;5075022;28;20020;-74
2022/07/04 00:13:01;;;;;;;1.27;0.10;;;13.20;99.90;;;;;;5074841;28;20024;-74
2022/07/04 00:15:27;;;;;;;0.90;0.20;;;13.10;99.90;;;;;;5075181;28;20024;-74
2022/07/04 00:17:52;;;;;;;0.73;0.00;;;13.20;99.90;;;;;;5074783;28;20044;-74
2022/07/04 00:20:18;;;;;;;3.75;0.00;;;13.10;99.90;;;;;;5075062;28;20457;-74
2022/07/04 00:22:44;;;;;;;2.08;0.10;;;13.20;99.90;;;;;;5074824;28;20388;-74
2022/07/04 00:25:10;;;;;;;0.20;0.05;;;13.10;99.90;;;;;;5074800;28;20037;-74
2022/07/04 00:27:36;;;;;;;1.52;0.50;;;13.10;99.90;;;;;;5057019;28;20086;-74
2022/07/04 00:30:03;;;;;;;0.90;0.10;;;13.00;99.90;;;;;;5075039;28;20029;-74
2022/07/04 00:32:28;;;;;;;0.30;0.10;;;13.00;99.90;;;;;;5074779;28;20033;-74
2022/07/04 00:34:54;;;;;;;1.75;0.00;;;13.00;99.90;;;;;;5075032;28;20021;-74
2022/07/04 00:37:19;;;;;;;1.85;0.05;;;13.00;99.90;;;;;;5073744;28;20039;-74
2022/07/04 00:39:45;;;;;;;0.65;0.03;;;12.90;99.90;;;;;;5074507;28;20024;-74
2022/07/04 00:42:10;;;;;;;2.78;0.28;;;12.90;99.90;;;;;;5056432;28;20043;-74
2022/07/04 00:44:36;;;;;;;1.77;0.10;;;12.90;99.90;;;;;;5074540;28;20025;-74
2022/07/04 00:47:03;;;;;;;1.55;0.08;;;12.90;99.90;;;;;;5074558;28;20020;-74
2022/07/04 00:49:31;;;;;;;0.52;0.17;;;12.80;99.90;;;;;;5056338;28;20024;-74
2022/07/04 00:51:57;;;;;;;1.75;0.10;;;12.80;99.90;;;;;;5056323;28;20063;-74
2022/07/04 00:54:26;;;;;;;3.72;0.35;;;12.80;99.90;;;;;;5074703;28;20020;-74
2022/07/04 00:56:52;;;;;;;;;;;12.80;99.90;;;;;;5074825;28;20027;-75
2022/07/04 00:59:18;;;;;;;1.73;0.10;;;12.80;99.90;;;;;;5056310;28;19908;-75
2022/07/04 01:01:44;;;;;;;0.57;0.00;;;12.80;99.90;;;;;;5073944;28;20048;-75
2022/07/04 01:04:09;;;;;;;2.05;0.10;;;12.80;99.90;;;;;;5073962;28;20082;-75
2022/07/04 01:06:35;;;;;;;3.72;0.32;;;12.70;99.90;;;;;;5056277;28;20066;-74
2022/07/04 01:09:01;;;;;;;1.05;0.08;;;12.70;99.90;;;;;;5074163;28;20031;-74
2022/07/04 01:11:26;;;;;;;1.50;0.55;;;12.80;99.90;;;;;;5074023;28;20492;-74
2022/07/04 01:13:55;;;;;;;0.25;0.00;;;12.70;99.90;;;;;;5073828;28;20032;-74
2022/07/04 01:16:21;;;;;;;1.33;0.08;;;12.70;99.90;;;;;;5074086;28;20095;-74
2022/07/04 01:18:46;;;;;;;1.20;0.22;;;12.70;99.90;;;;;;5074213;28;20054;-74
2022/07/04 01:21:12;;;;;;;1.42;0.30;;;12.70;99.90;;;;;;5074016;28;20020;-74
2022/07/04 01:23:39;;;;;;;0.90;0.20;;;12.70;99.90;;;;;;5073795;28;20017;-74
2022/07/04 01:26:05;;;;;;;1.27;0.20;;;12.70;99.90;;;;;;5073795;28;20029;-75
2022/07/04 01:28:30;;;;;;;6.38;0.20;;;12.60;99.90;;;;;;5073500;28;20028;-75
2022/07/04 01:30:56;;;;;;;3.28;0.30;;;12.70;99.90;;;;;;5074105;28;20119;-75
2022/07/04 01:33:22;;;;;;;1.95;0.15;;;12.70;99.90;;;;;;5055597;28;20029;-75
2022/07/04 01:35:47;;;;;;;1.38;0.20;;;12.70;99.90;;;;;;5073563;28;20072;-75
2022/07/04 01:38:13;;;;;;;2.03;0.35;;;12.70;99.90;;;;;;5073430;28;20021;-75
2022/07/04 01:40:39;;;;;;;5.57;0.43;;;12.70;99.90;;;;;;5073846;28;20017;-75
2022/07/04 01:43:05;;;;;;;1.20;0.20;;;12.70;99.90;;;;;;5074221;28;20055;-73
2022/07/04 01:45:37;;;;;;;1.10;0.00;;;12.70;99.90;;;;;;5073426;28;20020;-75
2022/07/04 01:48:06;;;;;;;2.65;0.55;;;12.70;99.90;;;;;;5055296;28;20021;-75
2022/07/04 01:50:32;;;;;;;4.97;0.20;;;12.60;99.90;;;;;;5073973;28;20043;-75
2022/07/04 01:52:58;;;;;;;4.45;0.85;;;12.60;99.90;;;;;;5073463;28;20028;-75
2022/07/04 01:55:24;;;;;;;1.35;0.43;;;12.60;99.90;;;;;;5073548;28;20115;-75
2022/07/04 01:57:49;;;;;;;1.30;0.20;;;12.60;99.90;;;;;;5073156;28;20020;-75
2022/07/04 02:02:59;;;;;;;8.13;0.40;;;12.50;99.90;;;;;;5073654;28;20519;-75
2022/07/04 02:05:25;;;;;;;2.40;0.40;;;12.50;99.90;;;;;;5073608;28;20024;-73
2022/07/04 02:07:51;;;;;;;2.80;0.68;;;12.50;99.90;;;;;;5073069;28;20074;-73
2022/07/04 02:10:17;;;;;;;1.98;0.40;;;12.50;99.90;;;;;;5073439;28;20028;-75
2022/07/04 02:15:40;;;;;;;2.40;0.80;;;12.40;99.90;;;;;;5059924;28;20492;-75
2022/07/04 02:18:09;;;;;;;2.08;0.70;;;12.40;99.90;;;;;;5073420;28;20054;-75
2022/07/04 02:20:36;;;;;;;3.40;0.75;;;12.40;99.90;;;;;;5073273;28;20020;-75
2022/07/04 02:23:02;;;;;;;2.70;0.45;;;12.40;99.90;;;;;;5073810;28;20063;-75
2022/07/04 02:25:29;;;;;;;5.00;0.75;;;12.30;99.90;;;;;;5073277;28;20032;-75
2022/07/04 02:27:55;;;;;;;2.03;0.40;;;12.30;99.90;;;;;;5073540;28;20028;-75
2022/07/04 02:30:21;;;;;;;3.47;0.40;;;12.30;99.90;;;;;;5055303;28;20016;-75
2022/07/04 02:32:46;;;;;;;6.40;1.20;;;12.30;99.90;;;;;;5073184;28;20039;-75
2022/07/04 02:35:12;;;;;;;1.17;0.43;;;12.30;99.90;;;;;;5073619;28;20040;-75
2022/07/04 02:37:38;;;;;;;2.05;0.68;;;12.30;99.90;;;;;;5073372;28;20021;-75
2022/07/04 02:40:04;;;;;;;1.83;0.68;;;12.30;99.90;;;;;;5055059;28;20050;-75
2022/07/04 02:42:31;;;;;;;3.22;0.77;;;12.20;99.90;;;;;;5054966;28;20032;-75
2022/07/04 02:44:57;;;;;;;2.65;0.38;;;12.30;99.90;;;;;;5072801;28;20082;-75
2022/07/04 02:47:23;;;;;;;2.53;0.77;;;12.20;99.90;;;;;;5072727;28;20025;-75
2022/07/04 02:49:48;;;;;;;2.80;0.65;;;12.20;99.90;;;;;;5072970;28;20079;-75
2022/07/04 02:52:15;;;;;;;2.15;0.57;;;12.20;99.90;;;;;;5072900;28;20020;-75
2022/07/04 02:54:41;;;;;;;2.95;1.10;;;12.10;99.90;;;;;;5073069;28;20051;-75
2022/07/04 02:57:07;;;;;;;4.60;1.20;;;12.10;99.90;;;;;;5054674;28;20499;-75
2022/07/04 02:59:33;;;;;;;1.42;0.70;;;12.30;99.90;;;;;;5074108;28;20081;-75
2022/07/04 03:01:59;;;;;;;2.42;1.20;;;12.10;99.90;;;;;;5076202;28;20493;-75
2022/07/04 03:04:24;;;;;;;9.50;1.25;;;12.10;99.90;;;;;;5076366;28;20537;-75
2022/07/04 03:06:50;;;;;;;3.88;0.77;;;12.10;99.90;;;;;;5076401;28;20029;-75
2022/07/04 03:09:15;;;;;;;3.38;1.02;;;12.10;99.90;;;;;;5058949;28;20025;-75
2022/07/04 03:11:41;;;;;;;4.03;1.92;;;12.10;99.90;;;;;;5076097;28;20095;-75
2022/07/04 03:14:07;;;;;;;3.78;0.90;;;12.10;99.90;;;;;;5076149;28;20611;-75
2022/07/04 03:16:32;;;;;;;5.07;1.23;;;12.10;99.90;;;;;;5058468;28;20420;-75
2022/07/04 03:18:58;;;;;;;1.15;0.70;;;12.10;99.90;;;;;;5075927;28;20020;-74
2022/07/04 03:21:23;;;;;;;2.97;1.30;;;12.10;99.90;;;;;;5076271;28;20032;-75
2022/07/04 03:23:58;;;;;;;1.55;1.05;;;12.20;99.90;;;;;;5076331;28;20024;-75
2022/07/04 03:26:29;;;;;;;3.40;0.98;;;12.10;99.90;;;;;;5076135;28;20024;-75
2022/07/04 03:28:55;;;;;;;6.55;1.48;;;12.10;99.90;;;;;;5075907;28;20386;-75
2022/07/04 03:31:20;;;;;;;3.05;1.23;;;12.10;99.90;;;;;;5075822;28;20029;-75
2022/07/04 03:33:46;;;;;;;6.05;1.85;;;12.10;99.90;;;;;;5075621;28;20040;-75
2022/07/04 03:36:11;;;;;;;6.82;1.55;;;12.10;99.90;;;;;;5075624;28;20096;-75
2022/07/04 03:38:37;;;;;;;3.10;1.20;;;12.10;99.90;;;;;;5075530;28;20081;-75
2022/07/04 03:41:02;;;;;;;7.93;2.47;;;12.10;99.90;;;;;;5075581;28;20013;-75
2022/07/04 03:43:28;;;;;;;2.40;1.42;;;12.10;99.90;;;;;;5075589;28;20099;-75
2022/07/04 03:45:53;;;;;;;4.18;1.67;;;12.10;99.90;;;;;;5057452;28;20082;-75
2022/07/04 03:48:20;;;;;;;3.00;1.67;;;12.10;99.90;;;;;;5075142;28;20036;-75
2022/07/04 03:50:45;;;;;;;8.00;2.72;;;12.20;99.90;;;;;;5075364;28;20020;-75
2022/07/04 03:53:12;;;;;;;7.03;2.20;;;12.20;99.90;;;;;;5075244;28;20048;-75
2022/07/04 03:55:37;;;;;;;3.50;1.92;;;12.20;99.90;;;;;;5075420;28;20048;-75
2022/07/04 03:58:04;;;;;;;4.60;2.45;;;12.30;99.90;;;;;;5075169;28;20071;-75
2022/07/04 04:00:30;;;;;;;5.32;2.10;;;12.30;99.90;;;;;;5075600;28;20024;-75
2022/07/04 04:02:56;;;;;;;4.05;2.22;;;12.40;99.90;;;;;;5075489;28;20439;-75
2022/07/04 04:05:27;;;;;;;6.00;1.77;;;12.40;99.90;;;;;;5075239;28;20020;-75
2022/07/04 04:08:01;;;;;;;4.38;2.60;;;12.50;99.90;;;;;;5057207;28;20055;-75
2022/07/04 04:10:30;;;;;;;4.13;1.48;;;12.60;99.90;;;;;;5056487;28;20509;-75
2022/07/04 04:12:57;;;;;;;6.60;2.42;;;12.70;99.90;;;;;;5056692;28;20017;-75
2022/07/04 04:15:22;;;;;;;5.22;2.42;;;12.70;99.90;;;;;;5074906;28;20024;-75
2022/07/04 04:17:48;;;;;;;3.90;2.13;;;12.80;99.90;;;;;;5075259;28;20099;-74
2022/07/04 04:20:13;;;;;;;10.25;3.53;;;12.90;99.90;;;;;;5074862;28;20025;-75
2022/07/04 04:22:39;;;;;;;5.95;2.10;;;13.00;99.90;;;;;;5075015;28;20033;-75
2022/07/04 04:25:05;;;;;;;8.70;2.80;;;13.00;99.90;;;;;;5056893;28;20066;-75
2022/07/04 04:27:31;;;;;;;7.25;2.78;;;13.10;99.90;;;;;;5074855;28;20043;-74
2022/07/04 04:29:56;;;;;;;8.77;2.72;;;13.20;99.90;;;;;;5074648;28;20489;-75
2022/07/04 04:32:22;;;;;;;6.68;2.28;;;13.20;99.90;;;;;;5074820;28;20497;-74
2022/07/04 04:34:47;;;;;;;15.45;3.10;;;13.20;99.90;;;;;;5074818;28;20036;-75
2022/07/04 04:37:13;;;;;;;6.05;2.17;;;13.20;99.90;;;;;;5056600;28;20024;-75
2022/07/04 04:39:39;;;;;;;7.15;2.75;;;13.30;99.90;;;;;;5056420;28;20082;-74
2022/07/04 04:42:04;;;;;;;6.60;2.55;;;13.40;99.90;;;;;;5074667;28;20497;-75
2022/07/04 04:44:30;;;;;;;4.10;2.20;;;13.50;99.90;;;;;;5074607;28;20076;-75
2022/07/04 04:46:56;;;;;;;5.75;2.40;;;13.50;99.90;;;;;;5074927;28;20330;-74
2022/07/04 04:49:21;;;;;;;8.48;2.22;;;13.60;99.90;;;;;;5074275;28;20536;-74
2022/07/04 04:51:47;;;;;;;3.40;1.42;;;13.70;99.90;;;;;;5074445;28;20052;-75
2022/07/04 04:54:12;;;;;;;8.75;2.47;;;13.80;99.90;;;;;;5074463;28;20027;-74
2022/07/04 04:56:38;;;;;;;9.05;1.95;;;13.90;99.90;;;;;;5074172;28;20056;-74
2022/07/04 04:59:04;;;;;;;7.30;1.73;;;14.00;99.90;;;;;;5074158;28;20028;-74
2022/07/04 05:01:29;;;;;;;7.88;2.40;;;14.00;99.90;;;;;;5073995;28;20043;-74
2022/07/04 05:03:55;;;;;;;5.25;2.05;;;14.10;99.90;;;;;;5074188;28;20390;-74
2022/07/04 05:06:20;;;;;;;4.32;2.08;;;14.10;99.90;;;;;;5056028;28;20074;-74
2022/07/04 05:08:46;;;;;;;5.38;1.90;;;14.20;99.90;;;;;;5073916;28;20078;-74
2022/07/04 05:11:11;;;;;;;3.00;1.80;;;14.40;99.90;;;;;;5073794;28;20028;-74
2022/07/04 05:13:37;;;;;;;7.32;2.10;;;14.50;99.90;;;;;;5074070;28;20469;-74
2022/07/04 05:16:03;;;;;;;11.82;2.60;;;14.70;99.90;;;;;;5073984;28;20024;-74
2022/07/04 05:18:29;;;;;;;5.50;1.58;;;14.70;99.90;;;;;;5073721;28;20020;-75
2022/07/04 05:20:54;;;;;;;4.22;1.40;;;14.80;99.90;;;;;;5074071;28;20020;-75
2022/07/04 05:23:20;;;;;;;6.00;1.05;;;14.90;99.90;;;;;;5073727;28;20021;-75
2022/07/04 05:25:47;;;;;;;6.55;1.63;;;15.10;99.90;;;;;;5073588;28;20488;-75
2022/07/04 05:28:12;;;;;;;2.45;1.23;;;15.40;99.90;;;;;;5073586;28;20024;-75
2022/07/04 05:30:38;;;;;;;3.78;1.40;;;15.70;99.90;;;;;;5055854;28;20017;-75
2022/07/04 05:33:03;;;;;;;6.38;1.60;;;16.00;99.90;;;;;;5073829;28;20017;-75
2022/07/04 05:35:30;;;;;;;1.05;0.50;;;16.20;99.90;;;;;;5073627;28;20047;-75
2022/07/04 05:37:55;;;;;;;3.92;0.47;;;16.30;99.90;;;;;;5073384;28;20023;-75
2022/07/04 05:40:21;;;;;;;2.70;1.05;;;16.40;99.90;;;;;;5073430;28;20021;-75
2022/07/04 05:42:47;;;;;;;8.90;0.75;;;16.50;99.90;;;;;;5055554;28;20028;-75
2022/07/04 05:45:12;;;;;;;4.53;0.57;;;16.50;99.90;;;;;;5055530;28;20515;-75
2022/07/04 05:47:38;;;;;;;1.88;0.20;;;16.50;99.90;;;;;;5055305;28;20032;-75
2022/07/04 05:50:04;;;;;;;3.90;0.40;;;16.50;99.90;;;;;;5073250;28;20074;-75
2022/07/04 05:52:30;;;;;;;3.97;1.17;;;16.70;99.90;;;;;;5055254;28;20509;-75
2022/07/04 05:54:55;;;;;;;5.18;0.73;;;16.80;99.90;;;;;;5073382;28;20051;-75
2022/07/04 05:57:21;;;;;;;5.60;0.98;;;17.00;99.90;;;;;;5073269;28;20074;-75
2022/07/04 05:59:47;;;;;;;4.35;0.63;;;17.20;99.90;;;;;;5073532;28;20013;-75
2022/07/04 06:02:14;;;;;;;2.58;0.32;;;17.40;99.90;;;;;;5073114;28;20509;-75
2022/07/04 06:04:40;;;;;;;4.47;0.35;;;17.50;99.90;;;;;;5055249;28;20021;-75
2022/07/04 06:07:06;;;;;;;6.47;0.75;;;17.70;99.90;;;;;;5073148;28;20021;-75
2022/07/04 06:09:31;;;;;;;5.13;0.45;;;17.70;99.90;;;;;;5055162;28;20393;-75
2022/07/04 06:11:57;;;;;;;11.63;1.38;;;17.70;99.90;;;;;;5073811;28;20049;-75
2022/07/04 06:14:22;;;;;;;5.88;0.68;;;17.80;99.90;;;;;;5049087;28;20047;-75
2022/07/04 06:16:48;;;;;;;3.97;0.68;;;17.60;99.90;;;;;;5036631;28;20373;-75
2022/07/04 06:19:13;;;;;;;3.30;0.30;;;17.50;99.90;;;;;;5055251;28;20032;-75
2022/07/04 06:21:39;;;;;;;4.80;0.35;;;17.60;99.90;;;;;;5073840;28;20027;-75
2022/07/04 06:24:05;;;;;;;5.05;0.40;;;17.50;99.90;;;;;;5055682;28;20496;-75
2022/07/04 06:26:30;;;;;;;2.55;0.50;;;17.40;99.90;;;;;;5073041;28;20052;-76
2022/07/04 06:28:57;;;;;;;4.95;0.45;;;17.50;99.90;;;;;;5072854;28;20055;-76
2022/07/04 06:31:22;;;;;;;8.65;1.20;;;17.50;99.90;;;;;;5071050;28;20394;-75
2022/07/04 06:36:32;;;;;;;4.55;0.40;;;18.40;99.90;;;;;;5073770;28;20089;-74
2022/07/04 06:38:58;;;;;;;2.97;0.63;;;17.80;99.90;;;;;;5076675;28;20092;-74
2022/07/04 06:41:24;;;;;;;3.22;0.28;;;17.90;99.90;;;;;;5076763;28;20021;-74
2022/07/04 06:43:49;;;;;;;6.63;1.02;;;18.30;99.90;;;;;;5076598;28;20044;-75
2022/07/04 06:46:15;;;;;;;6.05;0.65;;;18.20;99.90;;;;;;5076857;28;20024;-75
2022/07/04 06:48:41;;;;;;;5.32;0.70;;;18.30;99.90;;;;;;5076845;28;20032;-75
2022/07/04 06:51:06;;;;;;;4.95;1.25;;;18.40;99.90;;;;;;5058779;28;20027;-75
2022/07/04 06:53:33;;;;;;;6.45;0.88;;;18.40;99.90;;;;;;5076520;28;20071;-75
2022/07/04 06:55:59;;;;;;;6.50;0.57;;;18.50;99.90;;;;;;5058396;28;20588;-75
2022/07/04 06:58:24;;;;;;;6.13;0.55;;;18.50;99.90;;;;;;5076565;28;20024;-75
2022/07/04 07:00:50;;;;;;;3.63;1.13;;;18.60;99.90;;;;;;5090519;22;20040;-73
2022/07/04 07:03:15;;;;;;;8.90;0.80;;;18.50;99.90;;;;;;5078425;28;20115;-73
2022/07/04 07:05:41;;;;;;;1.33;0.25;;;18.40;99.90;;;;;;5096445;28;20035;-73
2022/07/04 07:08:07;;;;;;;2.92;0.35;;;18.20;99.90;;;;;;5096961;28;20072;-73
2022/07/04 07:10:32;;;;;;;7.22;0.65;;;18.20;99.90;;;;;;5096414;28;20418;-73
2022/07/04 07:12:59;;;;;;;5.45;0.70;;;18.30;99.90;;;;;;5096515;28;20024;-73
2022/07/04 07:15:24;;;;;;;1.85;0.30;;;18.40;99.90;;;;;;5096339;28;20024;-72
2022/07/04 07:17:50;;;;;;;3.08;0.28;;;18.70;99.90;;;;;;5096666;28;20019;-73
2022/07/04 07:20:16;;;;;;;2.33;0.45;;;18.80;99.90;;;;;;5077927;28;20020;-73
2022/07/04 07:22:42;;;;;;;5.55;0.50;;;18.90;99.90;;;;;;5096144;28;20027;-73
2022/07/04 07:25:12;;;;;;;4.32;0.10;;;19.20;99.90;;;;;;5096361;28;20107;-73
2022/07/04 07:27:39;;;;;;;1.88;0.25;;;19.40;99.90;;;;;;5077880;28;20481;-73
2022/07/04 07:30:05;;;;;;;8.38;0.35;;;19.40;99.90;;;;;;5096115;28;20024;-76
2022/07/04 07:32:31;;;;;;;0.50;0.08;;;19.50;99.90;;;;;;5095935;28;20456;-76
2022/07/04 07:34:57;;;;;;;3.28;0.85;;;19.60;99.90;;;;;;5096310;28;20020;-75
2022/07/04 07:37:23;;;;;;;2.17;0.00;;;19.80;99.90;;;;;;5096212;28;20423;-77
2022/07/04 07:39:49;;;;;;;3.42;0.00;;;19.90;99.90;;;;;;5077751;28;20028;-74
2022/07/04 07:42:16;;;;;;;2.15;0.05;;;20.00;99.90;;;;;;5096455;28;20028;-76
2022/07/04 07:44:45;;;;;;;3.03;0.43;;;20.10;99.90;;;;;;5095766;28;20396;-75
2022/07/04 07:47:15;;;;;;;4.13;0.43;;;20.10;99.90;;;;;;5077615;28;20400;-75
2022/07/04 07:49:41;;;;;;;4.30;0.65;;;20.30;99.90;;;;;;5096007;28;20028;-75
2022/07/04 07:52:07;;;;;;;2.25;0.10;;;20.60;99.90;;;;;;5095690;28;20030;-75
2022/07/04 07:54:33;;;;;;;3.92;0.30;;;20.80;99.90;;;;;;5095592;28;20020;-76
2022/07/04 07:56:58;;;;;;;4.03;0.63;;;20.60;99.90;;;;;;5094869;28;20096;-76
2022/07/04 07:59:24;;;;;;;3.80;0.10;;;20.50;99.90;;;;;;5095456;28;20027;-75
2022/07/04 08:01:49;;;;;;;1.70;0.20;;;20.30;99.90;;;;;;5094211;28;20024;-75
2022/07/04 08:06:59;;;;;;;3.75;0.30;;;20.20;99.90;;;;;;5096178;28;20031;-75
2022/07/04 08:09:24;;;;;;;5.47;0.10;;;20.50;99.90;;;;;;5099931;22;20052;-76
2022/07/04 08:11:50;;;;;;;0.75;0.00;;;20.60;99.90;;;;;;5073850;28;20354;-76
2022/07/04 08:14:15;;;;;;;1.20;0.20;;;20.80;99.90;;;;;;5073836;28;20017;-75
2022/07/04 08:16:41;;;;;;;2.80;0.10;;;21.00;99.90;;;;;;5073724;28;20025;-75
2022/07/04 08:19:07;;;;;;;6.72;0.28;;;21.60;99.90;;;;;;5073619;28;20016;-75
2022/07/04 08:21:32;;;;;;;0.45;0.00;;;21.50;99.90;;;;;;5075204;28;20377;-74
2022/07/04 08:23:58;;;;;;;0.82;0.00;;;21.30;99.90;;;;;;5074906;28;20028;-75
2022/07/04 08:26:24;;;;;;;2.50;0.00;;;21.10;99.90;;;;;;5074931;28;20215;-75
2022/07/04 08:28:51;;;;;;;1.48;0.00;;;20.80;99.90;;;;;;5075014;28;20460;-75
2022/07/04 08:31:18;;;;;;;2.27;0.00;;;20.60;99.90;;;;;;5074798;28;20016;-75
2022/07/04 08:33:43;;;;;;;1.33;0.00;;;20.50;99.90;;;;;;5074949;28;20044;-75
2022/07/04 08:36:09;;;;;;;0.93;0.03;;;20.20;99.90;;;;;;5073274;28;20485;-75
2022/07/04 08:38:34;;;;;;;0.80;0.40;;;20.20;99.90;;;;;;5074396;28;20067;-75
2022/07/04 08:41:03;;;;;;;0.45;0.13;;;19.90;99.90;;;;;;5074313;28;20071;-75
2022/07/04 08:43:33;;;;;;;0.00;0.00;;;19.90;99.90;;;;;;5074374;28;20028;-74
2022/07/04 08:46:02;;;;;;;4.07;0.00;;;20.30;99.90;;;;;;5074375;28;20036;-75
2022/07/04 08:48:30;;;;;;;1.70;0.00;;;20.70;99.90;;;;;;5072859;28;20111;-75
2022/07/04 08:50:59;;;;;;;2.38;0.50;;;21.30;99.90;;;;;;5074211;28;20040;-75
2022/07/04 08:53:28;;;;;;;0.80;0.00;;;21.70;99.90;;;;;;5074309;28;20376;-75
2022/07/04 08:58:45;;;;;;;0.93;0.03;;;22.00;99.90;;;;;;5074371;28;20032;-75
2022/07/04 09:01:14;;;;;;;3.10;0.00;;;22.10;99.90;;;;;;5073961;28;20354;-75
2022/07/04 09:03:42;;;;;;;2.00;0.00;;;22.30;99.90;;;;;;5072633;28;20020;-75
2022/07/04 09:06:09;;;;;;;0.45;0.00;;;22.20;99.90;;;;;;5073964;28;20024;-74
2022/07/04 09:08:35;;;;;;;0.22;0.00;;;22.30;99.90;;;;;;5073997;28;20025;-75
2022/07/04 09:11:02;;;;;;;1.80;0.32;;;22.20;99.90;;;;;;5073676;28;20036;-75
2022/07/04 09:13:29;;;;;;;1.75;0.08;;;22.20;99.90;;;;;;5073709;28;20064;-75
2022/07/04 09:15:55;;;;;;;1.60;0.35;;;22.20;99.90;;;;;;5073694;28;20044;-75
2022/07/04 09:18:28;;;;;;;0.00;0.00;;;22.10;99.90;;;;;;5073825;28;20043;-75
2022/07/04 09:21:15;;;;;;;0.68;0.00;;;21.90;99.90;;;;;;5073822;28;20055;-75
2022/07/04 09:23:42;;;;;;;1.45;0.10;;;21.80;99.90;;;;;;5074007;28;20037;-76
2022/07/04 09:26:21;;;;;;;1.45;0.00;;;21.70;99.90;;;;;;5073764;28;20426;-76
2022/07/04 09:28:52;;;;;;;2.78;0.20;;;21.60;99.90;;;;;;5074016;28;20024;-76
2022/07/04 09:31:21;;;;;;;1.27;0.08;;;21.60;99.90;;;;;;5072464;28;20020;-74
2022/07/04 09:33:53;;;;;;;0.30;0.00;;;21.60;99.90;;;;;;5072492;28;20029;-74
2022/07/04 09:36:22;;;;;;;3.17;0.00;;;21.60;99.90;;;;;;5072609;28;20070;-74
2022/07/04 09:39:18;;;;;;;1.85;0.15;;;21.40;99.90;;;;;;5073928;28;20040;-75
2022/07/04 09:41:51;;;;;;;0.98;0.00;;;21.20;99.90;;;;;;5073952;28;20099;-73
2022/07/04 09:44:17;;;;;;;0.20;0.00;;;21.10;99.90;;;;;;5072085;28;20033;-75
2022/07/04 09:46:42;;;;;;;2.17;0.05;;;21.10;99.90;;;;;;5073455;28;20100;-76
2022/07/04 09:49:10;;;;;;;0.45;0.10;;;21.20;99.90;;;;;;5072076;28;20021;-76
2022/07/04 09:51:39;;;;;;;2.53;0.00;;;21.30;99.90;;;;;;5073371;28;20389;-75
2022/07/04 09:54:18;;;;;;;;;;;21.20;99.90;;;;;;5072494;28;20033;-74
2022/07/04 09:56:49;;;;;;;1.13;0.00;;;21.10;99.90;;;;;;5073534;28;20262;-74
2022/07/04 09:59:14;;;;;;;0.25;0.00;;;21.00;99.90;;;;;;5072058;28;20067;-75
2022/07/04 10:01:40;;;;;;;0.50;0.00;;;21.00;99.90;;;;;;5073422;28;20033;-74
2022/07/04 10:04:06;;;;;;;0.20;0.00;;;21.10;99.90;;;;;;5073386;28;20025;-74
2022/07/04 10:06:33;;;;;;;0.77;0.00;;;21.10;99.90;;;;;;5072974;28;20024;-74
2022/07/04 10:09:14;;;;;;;1.02;0.00;;;21.10;99.90;;;;;;5072713;28;20112;-74
2022/07/04 10:11:42;;;;;;;0.63;0.00;;;21.20;99.90;;;;;;5076167;28;20040;-74
2022/07/04 10:14:10;;;;;;;0.10;0.00;;;21.40;99.90;;;;;;5076275;28;20185;-74
2022/07/04 10:16:38;;;;;;;0.90;0.00;;;21.60;99.90;;;;;;5076309;28;20021;-74
2022/07/04 10:19:04;;;;;;;0.20;0.00;;;21.80;99.90;;;;;;5076354;28;20021;-74
2022/07/04 10:21:31;;;;;;;0.88;0.10;;;22.10;99.90;;;;;;5074700;28;20543;-74
2022/07/04 10:23:58;;;;;;;0.20;0.00;;;22.40;99.30;;;;;;5075429;28;20393;-74
2022/07/04 10:26:24;;;;;;;0.95;0.00;;;22.70;97.70;;;;;;5077286;28;20475;-74
2022/07/04 10:28:52;;;;;;;0.10;0.00;;;22.90;93.80;;;;;;5076794;28;20029;-74
2022/07/04 10:31:22;;;;;;;1.30;0.00;;;23.10;96.90;;;;;;5077190;28;20564;-74
2022/07/04 10:33:48;;;;;;;0.45;0.00;;;23.40;96.40;;;;;;5077184;28;20289;-75
2022/07/04 10:36:15;;;;;;;0.38;0.00;;;23.60;94.20;;;;;;5076797;28;20103;-75
2022/07/04 10:39:05;;;;;;;3.00;0.00;;;23.70;92.70;;;;;;5076947;28;20025;-75
2022/07/04 10:41:31;;;;;;;0.75;0.00;;;23.90;92.10;;;;;;5076658;28;20027;-74
2022/07/04 10:44:13;;;;;;;0.52;0.05;;;24.00;89.10;;;;;;5076672;28;20110;-74
2022/07/04 10:46:47;;;;;;;0.45;0.00;;;24.10;87.40;;;;;;5076999;28;20028;-74
2022/07/04 10:49:16;;;;;;;0.00;0.00;;;24.20;89.80;;;;;;5076735;28;20405;-74
2022/07/04 10:51:54;;;;;;;0.45;0.00;;;24.00;82.30;;;;;;5076538;28;20598;-74
2022/07/04 10:54:38;;;;;;;0.47;0.00;;;23.90;88.90;;;;;;5075208;28;20035;-74
2022/07/04 10:57:11;;;;;;;0.20;0.00;;;23.70;82.60;;;;;;5075247;28;20021;-74
2022/07/04 10:59:38;;;;;;;0.55;0.00;;;23.90;88.80;;;;;;5075004;28;20489;-74
2022/07/04 11:02:06;;;;;;;0.63;0.00;;;24.10;89.60;;;;;;5076609;28;20013;-74
2022/07/04 11:04:47;;;;;;;1.67;0.10;;;24.10;89.20;;;;;;5076283;28;20021;-74
2022/07/04 11:07:14;;;;;;;0.32;0.10;;;23.70;79.10;;;;;;5076537;28;20154;-74
2022/07/04 11:09:40;;;;;;;1.45;0.00;;;23.50;85.60;;;;;;5076076;28;20066;-74
2022/07/04 11:12:06;;;;;;;0.45;0.00;;;23.80;83.60;;;;;;5075994;28;20103;-75
2022/07/04 11:14:44;;;;;;;0.05;0.00;;;24.00;83.90;;;;;;5074897;28;20013;-74
2022/07/04 11:17:17;;;;;;;1.45;0.00;;;24.10;84.40;;;;;;5076202;28;20477;-74
2022/07/04 11:19:43;;;;;;;0.30;0.00;;;24.60;81.70;;;;;;5075496;28;20016;-74
2022/07/04 11:22:10;;;;;;;0.68;0.10;;;24.40;77.70;;;;;;5076127;28;20029;-75
2022/07/04 11:24:37;;;;;;;1.20;0.00;;;24.20;86.50;;;;;;5076830;28;20106;-74
2022/07/04 11:27:03;;;;;;;1.25;0.00;;;24.10;83.30;;;;;;5076219;28;20024;-74
2022/07/04 11:29:30;;;;;;;0.32;0.00;;;23.90;79.70;;;;;;5075656;28;20392;-74
2022/07/04 11:31:56;;;;;;;2.67;0.00;;;23.60;81.90;;;;;;5074767;28;20055;-74
2022/07/04 11:34:23;;;;;;;0.43;0.00;;;23.80;88.00;;;;;;5076089;28;20052;-74
2022/07/04 11:36:50;;;;;;;1.63;0.00;;;23.90;83.40;;;;;;5074999;28;20028;-74
2022/07/04 11:39:21;;;;;;;0.77;0.20;;;24.20;87.00;;;;;;5075866;28;20029;-74
2022/07/04 11:47:39;;;;;;;0.35;0.00;;;24.60;84.40;;;;;;5075731;28;20098;-75
2022/07/04 11:50:10;;;;;;;0.25;0.00;;;24.80;79.90;;;;;;5074916;28;20596;-74
2022/07/04 11:52:46;;;;;;;0.52;0.22;;;25.00;78.40;;;;;;5075350;28;20060;-74
2022/07/04 11:55:14;;;;;;;1.00;0.00;;;24.50;77.50;;;;;;5075288;28;20020;-74
2022/07/04 11:57:54;;;;;;;0.98;0.00;;;24.90;81.60;;;;;;5075181;28;20089;-74
2022/07/04 12:00:25;;;;;;;0.63;0.00;;;25.10;74.70;;;;;;5074020;28;20024;-74
2022/07/04 12:02:55;;;;;;;0.25;0.00;;;25.20;75.50;;;;;;5075498;28;20382;-74
2022/07/04 12:05:21;;;;;;;0.75;0.00;;;24.80;75.80;;;;;;5073888;28;20074;-74
2022/07/04 12:07:48;;;;;;;1.17;0.43;;;24.50;77.80;;;;;;5074969;28;20486;-74
2022/07/04 12:10:23;;;;;;;2.47;0.00;;;24.40;76.10;;;;;;5073661;28;20033;-74
2022/07/04 12:12:58;;;;;;;1.20;0.20;;;24.70;79.20;;;;;;5075403;28;20473;-74
2022/07/04 12:15:25;;;;;;;0.57;0.00;;;24.80;76.90;;;;;;5074946;28;20381;-74
2022/07/04 12:17:54;;;;;;;0.70;0.00;;;25.20;74.60;;;;;;5074602;28;20497;-74
2022/07/04 12:20:23;;;;;;;0.20;0.00;;;25.40;74.90;;;;;;5074836;28;20024;-74
2022/07/04 12:22:52;;;;;;;0.30;0.00;;;25.40;73.50;;;;;;5074833;28;20024;-74
2022/07/04 12:25:32;;;;;;;0.38;0.08;;;25.20;72.10;;;;;;5074720;28;20393;-75
2022/07/04 12:27:59;;;;;;;0.47;0.08;;;25.30;76.30;;;;;;5074650;28;20024;-74
2022/07/04 12:30:26;;;;;;;0.10;0.00;;;25.20;71.20;;;;;;5074870;28;20032;-74
2022/07/04 12:32:56;;;;;;;0.20;0.00;;;25.60;70.50;;;;;;5073621;28;20494;-74
2022/07/04 12:35:35;;;;;;;0.10;0.00;;;25.40;72.20;;;;;;5074529;28;20024;-74
2022/07/04 12:38:23;;;;;;;0.28;0.00;;;25.40;70.00;;;;;;5073092;28;20389;-74
2022/07/04 12:40:59;;;;;;;1.02;0.00;;;25.60;73.40;;;;;;5067106;28;20035;-74
2022/07/04 12:43:41;;;;;;;0.00;0.00;;;25.70;67.40;;;;;;5074366;28;20067;-74
2022/07/04 12:46:14;;;;;;;1.35;0.00;;;26.00;71.30;;;;;;5072832;28;20016;-74
2022/07/04 12:48:41;;;;;;;0.43;0.00;;;26.50;72.50;;;;;;5072778;28;20028;-74
2022/07/04 12:51:16;;;;;;;0.52;0.00;;;26.80;67.40;;;;;;5073371;28;20032;-74
2022/07/04 12:53:45;;;;;;;0.20;0.00;;;26.80;68.70;;;;;;5073575;28;20142;-74
2022/07/04 12:56:26;;;;;;;;;;;27.20;67.90;;;;;;5075034;28;20048;-74
2022/07/04 12:58:52;;;;;;;0.13;0.00;;;27.00;68.30;;;;;;5072717;28;19904;-74
2022/07/04 13:01:17;;;;;;;0.03;0.00;;;26.60;66.60;;;;;;5074647;28;20025;-74
2022/07/04 13:03:43;;;;;;;0.10;0.00;;;26.20;65.20;;;;;;5074277;28;20032;-74
2022/07/04 13:06:09;;;;;;;1.40;0.00;;;26.00;64.80;;;;;;5073964;28;20020;-74
2022/07/04 13:08:34;;;;;;;1.17;0.00;;;26.30;69.90;;;;;;5074108;28;20025;-74